Time;durP1;ratioP1;P1;durP2;ratioP2;P2;SDS_P1;SDS_P2;PMS_P1;PMS_P2;Temp;Humidity;BMP_temperature;BMP_pressure;BME280_temperature;BME280_humidity;BME280_pressure;Samples;Min_cycle;Max_cycle;Signal;HPM_P1;HPM_P2
2021/12/05 10:15:35;;;;;;;6.43;2.60;;;;;;;;;;5021841;28;20097;-67
2021/12/05 10:26:55;;;;;;;4.95;1.40;;;;;;;;;;4964395;28;20042;-67
2021/12/05 10:37:37;;;;;;;3.50;1.35;;;;;;;;;;4950952;28;20050;-67
2021/12/05 10:40:06;;;;;;;4.05;1.27;;;;;;;;;;4941728;28;20092;-67
2021/12/05 10:42:43;;;;;;;4.03;1.30;;;;;;;;;;4962020;28;20048;-65
2021/12/05 10:45:28;;;;;;;5.72;0.90;;;;;;;;;;5020024;28;20198;-64
2021/12/05 10:47:56;;;;;;;3.72;1.10;;;;;;;;;;5025010;28;20076;-63
2021/12/05 10:50:29;;;;;;;2.47;1.13;;;;;;;;;;5029968;28;20072;-63
2021/12/05 10:53:13;;;;;;;5.13;1.20;;;;;;;;;;5032186;28;20037;-63
2021/12/05 10:55:39;;;;;;;2.30;1.10;;;;;;;;;;5029480;28;20038;-65
2021/12/05 10:58:06;;;;;;;6.47;1.30;;;;;;;;;;5069798;28;20395;-65
2021/12/05 11:00:32;;;;;;;5.00;1.10;;;;;;;;;;5094352;28;20039;-66
2021/12/05 11:03:16;;;;;;;5.53;1.40;;;;;;;;;;5092375;28;20047;-66
2021/12/05 11:05:43;;;;;;;4.35;1.25;;;;;;;;;;5096691;28;20028;-65
2021/12/05 11:08:28;;;;;;;7.68;1.25;;;;;;;;;;5094130;28;20070;-65
2021/12/05 11:11:11;;;;;;;2.67;0.98;;;;;;;;;;5087246;28;20047;-63
2021/12/05 11:13:39;;;;;;;5.13;1.50;;;;;;;;;;5089428;28;20028;-65
2021/12/05 11:16:25;;;;;;;6.38;1.70;;;;;;;;;;5070989;28;20543;-65
2021/12/05 11:18:51;;;;;;;4.80;1.17;;;;;;;;;;5085175;28;20102;-65
2021/12/05 11:21:24;;;;;;;4.30;1.20;;;;;;;;;;5089576;28;20028;-64
2021/12/05 11:24:10;;;;;;;4.95;1.33;;;;;;;;;;5079197;28;20024;-65
2021/12/05 11:26:36;;;;;;;4.82;1.20;;;;;;;;;;5082583;28;20032;-65
2021/12/05 11:29:02;;;;;;;4.90;1.23;;;;;;;;;;5088642;28;20025;-65
2021/12/05 11:31:29;;;;;;;6.30;1.70;;;;;;;;;;5085769;28;20556;-70
2021/12/05 11:33:56;;;;;;;7.40;1.50;;;;;;;;;;5086589;28;20041;-65
2021/12/05 11:36:28;;;;;;;9.10;1.75;;;;;;;;;;5086994;28;20025;-65
2021/12/05 11:38:55;;;;;;;4.63;1.17;;;;;;;;;;5084897;28;20032;-65
2021/12/05 11:41:23;;;;;;;3.85;1.30;;;;;;;;;;5067532;28;20104;-64
2021/12/05 11:43:54;;;;;;;5.95;1.67;;;;;;;;;;5089295;28;20494;-64
2021/12/05 11:46:20;;;;;;;6.43;1.17;;;;;;;;;;5085253;28;20477;-63
2021/12/05 11:48:49;;;;;;;5.97;1.20;;;;;;;;;;5094038;28;20058;-64
2021/12/05 11:51:30;;;;;;;6.68;1.35;;;;;;;;;;5091449;28;20024;-64
2021/12/05 11:53:59;;;;;;;2.95;1.10;;;;;;;;;;5089357;28;20537;-65
2021/12/05 11:56:32;;;;;;;3.03;1.20;;;;;;;;;;5092143;28;20066;-64
2021/12/05 11:59:17;;;;;;;3.03;0.90;;;;;;;;;;5093329;28;20035;-64
2021/12/05 12:01:44;;;;;;;2.05;1.00;;;;;;;;;;5085233;28;20031;-65
2021/12/05 12:04:11;;;;;;;4.13;1.20;;;;;;;;;;5088046;28;20036;-64
2021/12/05 12:06:38;;;;;;;3.85;1.02;;;;;;;;;;5095128;28;20020;-65
2021/12/05 12:09:05;;;;;;;3.65;1.20;;;;;;;;;;5096147;28;20093;-65
2021/12/05 12:11:31;;;;;;;2.40;0.90;;;;;;;;;;5098627;28;20080;-66
2021/12/05 12:13:57;;;;;;;9.10;1.63;;;;;;;;;;5092457;28;20027;-65
2021/12/05 12:16:23;;;;;;;5.68;1.02;;;;;;;;;;5091611;28;20114;-65
2021/12/05 12:18:51;;;;;;;8.75;1.42;;;;;;;;;;5074743;28;20413;-65
2021/12/05 12:21:19;;;;;;;4.53;1.50;;;;;;;;;;5090678;28;20052;-65
2021/12/05 12:23:51;;;;;;;4.53;1.48;;;;;;;;;;5089266;28;20035;-65
2021/12/05 12:26:17;;;;;;;4.90;1.63;;;;;;;;;;5093985;28;20023;-65
2021/12/05 12:28:43;;;;;;;3.08;1.55;;;;;;;;;;5092147;28;20031;-65
2021/12/05 12:31:15;;;;;;;5.68;1.00;;;;;;;;;;5088083;28;20060;-65
2021/12/05 12:33:48;;;;;;;4.10;0.93;;;;;;;;;;5088985;28;20048;-65
2021/12/05 12:36:14;;;;;;;5.40;1.50;;;;;;;;;;5097527;28;20390;-67
2021/12/05 12:38:42;;;;;;;6.50;1.05;;;;;;;;;;5094760;28;20391;-67
2021/12/05 12:41:12;;;;;;;1.77;0.60;;;;;;;;;;5094937;28;20111;-64
2021/12/05 12:43:44;;;;;;;5.63;1.77;;;;;;;;;;5089203;28;20032;-63
2021/12/05 12:46:29;;;;;;;6.40;1.27;;;;;;;;;;5089487;28;20046;-64
2021/12/05 12:48:58;;;;;;;4.00;1.08;;;;;;;;;;5083567;28;20605;-63
2021/12/05 12:51:29;;;;;;;5.40;1.27;;;;;;;;;;5088585;28;20017;-63
2021/12/05 12:53:56;;;;;;;5.57;1.67;;;;;;;;;;5082373;28;20827;-65
2021/12/05 12:56:24;;;;;;;4.50;1.25;;;;;;;;;;5087937;28;20358;-64
2021/12/05 12:58:59;;;;;;;5.65;1.30;;;;;;;;;;5082643;28;20056;-62
2021/12/05 13:10:00;;;;;;;4.68;2.53;;;;;;;;;;5093632;28;20113;-63
2021/12/05 13:12:32;;;;;;;5.30;2.10;;;;;;;;;;5089918;28;20077;-64
2021/12/05 13:15:22;;;;;;;5.80;1.58;;;;;;;;;;5067408;28;20028;-64
2021/12/05 13:18:08;;;;;;;5.50;1.83;;;;;;;;;;5075311;28;20570;-63
2021/12/05 13:20:44;;;;;;;1.77;0.90;;;;;;;;;;5073284;28;20519;-64
2021/12/05 13:23:10;;;;;;;6.15;1.45;;;;;;;;;;5078533;28;20024;-64
2021/12/05 13:25:56;;;;;;;6.60;1.20;;;;;;;;;;5088446;28;20050;-63
2021/12/05 13:28:36;;;;;;;3.40;1.20;;;;;;;;;;5081511;28;20032;-63
2021/12/05 13:31:22;;;;;;;6.97;1.50;;;;;;;;;;5080605;28;20026;-63
2021/12/05 13:33:49;;;;;;;3.17;1.25;;;;;;;;;;5080901;28;20028;-63
2021/12/05 13:36:29;;;;;;;6.22;1.00;;;;;;;;;;5063182;28;20383;-64
2021/12/05 13:38:55;;;;;;;2.80;1.08;;;;;;;;;;5074510;28;20027;-63
2021/12/05 13:41:21;;;;;;;3.33;1.00;;;;;;;;;;5079144;28;20032;-63
2021/12/05 13:44:02;;;;;;;4.80;1.20;;;;;;;;;;5080709;28;20474;-64
2021/12/05 13:46:28;;;;;;;;;;;;;;;;;;5079919;28;20028;-65
2021/12/05 13:48:54;;;;;;;4.38;1.30;;;;;;;;;;5069852;28;20394;-64
2021/12/05 13:51:23;;;;;;;8.73;2.63;;;;;;;;;;5085171;28;20546;-64
2021/12/05 13:53:51;;;;;;;4.82;1.00;;;;;;;;;;5080719;28;20097;-64
2021/12/05 13:56:26;;;;;;;5.65;2.67;;;;;;;;;;5085157;28;20022;-64
2021/12/05 13:58:53;;;;;;;5.47;2.72;;;;;;;;;;5075372;28;20028;-65
2021/12/05 14:01:20;;;;;;;6.57;1.33;;;;;;;;;;5070615;28;20413;-66
2021/12/05 14:03:49;;;;;;;4.05;1.35;;;;;;;;;;5072882;28;20032;-66
2021/12/05 14:06:24;;;;;;;8.13;1.45;;;;;;;;;;5063750;28;20031;-66
2021/12/05 14:08:52;;;;;;;6.95;1.30;;;;;;;;;;5079236;28;20488;-66
2021/12/05 14:11:18;;;;;;;8.43;2.42;;;;;;;;;;5081291;28;20332;-66
2021/12/05 14:13:47;;;;;;;2.75;1.30;;;;;;;;;;5083994;28;20040;-66
2021/12/05 14:16:14;;;;;;;5.05;1.33;;;;;;;;;;5078265;28;20035;-66
2021/12/05 14:18:41;;;;;;;4.65;1.60;;;;;;;;;;5077459;28;20082;-66
2021/12/05 14:21:13;;;;;;;2.53;0.98;;;;;;;;;;5083831;28;20033;-66
2021/12/05 14:23:40;;;;;;;6.60;3.92;;;;;;;;;;5088857;28;20395;-66
2021/12/05 14:26:19;;;;;;;2.75;1.30;;;;;;;;;;5092202;28;20035;-66
2021/12/05 14:29:05;;;;;;;7.10;1.83;;;;;;;;;;5089574;28;20044;-65
2021/12/05 14:31:35;;;;;;;8.82;4.32;;;;;;;;;;5077444;28;20483;-65
2021/12/05 14:34:02;;;;;;;24.35;13.25;;;;;;;;;;5090173;28;20194;-65
2021/12/05 14:36:33;;;;;;;11.60;4.32;;;;;;;;;;5077369;28;20085;-64
2021/12/05 14:39:07;;;;;;;9.43;3.70;;;;;;;;;;5093157;28;20028;-65
2021/12/05 14:41:33;;;;;;;12.80;4.93;;;;;;;;;;5094569;28;20039;-64
2021/12/05 14:44:00;;;;;;;14.73;7.18;;;;;;;;;;5097973;28;20510;-65
2021/12/05 14:46:26;;;;;;;21.05;11.75;;;;;;;;;;5092159;28;20024;-65
2021/12/05 14:48:56;;;;;;;7.88;4.20;;;;;;;;;;5094497;28;20032;-66
2021/12/05 14:51:38;;;;;;;7.32;3.17;;;;;;;;;;5094229;28;20024;-65
2021/12/05 14:54:05;;;;;;;9.48;2.20;;;;;;;;;;5097001;28;20035;-65
2021/12/05 14:56:32;;;;;;;6.13;2.08;;;;;;;;;;5096375;28;20084;-65
2021/12/05 14:59:10;;;;;;;7.05;1.40;;;;;;;;;;5097999;28;20020;-64
2021/12/05 15:01:37;;;;;;;7.57;1.40;;;;;;;;;;5090643;28;20029;-65
2021/12/05 15:04:05;;;;;;;7.70;1.90;;;;;;;;;;5090470;28;20169;-64
2021/12/05 15:06:37;;;;;;;6.30;2.17;;;;;;;;;;5092219;28;20027;-64
2021/12/05 15:09:08;;;;;;;7.53;1.85;;;;;;;;;;5098895;28;20057;-64
2021/12/05 15:11:34;;;;;;;;;;;;;;;;;;5089266;28;20034;-64
2021/12/05 15:14:07;;;;;;;11.35;2.75;;;;;;;;;;5091998;28;19986;-65
2021/12/05 15:16:33;;;;;;;10.15;2.38;;;;;;;;;;5087448;28;20078;-64
2021/12/05 15:19:00;;;;;;;5.55;1.55;;;;;;;;;;5088223;28;20043;-65
2021/12/05 15:21:27;;;;;;;8.95;1.75;;;;;;;;;;5095965;28;20844;-65
2021/12/05 15:23:54;;;;;;;5.65;1.38;;;;;;;;;;5093231;28;20480;-65
2021/12/05 15:26:20;;;;;;;9.20;1.90;;;;;;;;;;5096565;28;20107;-65
2021/12/05 15:28:47;;;;;;;9.90;1.65;;;;;;;;;;5087392;28;20147;-65
2021/12/05 15:31:13;;;;;;;7.03;1.92;;;;;;;;;;5090686;28;20502;-65
2021/12/05 15:33:40;;;;;;;9.63;2.03;;;;;;;;;;5071086;28;20028;-64
2021/12/05 15:36:07;;;;;;;7.18;1.90;;;;;;;;;;5087675;28;20027;-65
2021/12/05 15:38:35;;;;;;;7.65;1.70;;;;;;;;;;5089074;28;20417;-65
2021/12/05 15:41:05;;;;;;;12.50;2.35;;;;;;;;;;5093380;28;20115;-65
2021/12/05 15:43:32;;;;;;;9.18;1.90;;;;;;;;;;5089638;28;20490;-65
2021/12/05 15:45:59;;;;;;;11.85;2.42;;;;;;;;;;5096772;28;20035;-65
2021/12/05 15:48:29;;;;;;;8.48;2.33;;;;;;;;;;5096713;28;20032;-65
2021/12/05 15:50:56;;;;;;;7.00;2.40;;;;;;;;;;5094922;28;20081;-65
2021/12/05 15:53:23;;;;;;;9.23;2.45;;;;;;;;;;5094759;28;20027;-65
2021/12/05 15:55:52;;;;;;;11.52;3.05;;;;;;;;;;5099429;28;20036;-65
2021/12/05 15:58:25;;;;;;;10.32;3.05;;;;;;;;;;5095195;28;20491;-64
2021/12/05 16:00:54;;;;;;;11.05;3.13;;;;;;;;;;5100159;28;20039;-64
2021/12/05 16:03:24;;;;;;;16.13;6.10;;;;;;;;;;5095178;28;20391;-64
2021/12/05 16:05:54;;;;;;;83.60;46.58;;;;;;;;;;5094368;28;20483;-65
2021/12/05 16:08:21;;;;;;;298.55;169.23;;;;;;;;;;5091634;28;20040;-66
2021/12/05 16:10:50;;;;;;;69.70;37.25;;;;;;;;;;5084135;28;20079;-65
2021/12/05 16:13:19;;;;;;;20.67;7.95;;;;;;;;;;5081365;28;20025;-65
2021/12/05 16:15:47;;;;;;;16.27;6.72;;;;;;;;;;5082024;28;20025;-64
2021/12/05 16:18:14;;;;;;;220.27;82.50;;;;;;;;;;5077853;28;20028;-65
2021/12/05 16:20:51;;;;;;;206.52;78.95;;;;;;;;;;5079683;28;20052;-64
2021/12/05 16:23:17;;;;;;;361.88;154.77;;;;;;;;;;5080861;28;20043;-64
2021/12/05 16:25:58;;;;;;;26.02;8.15;;;;;;;;;;5080038;28;20033;-66
2021/12/05 16:28:27;;;;;;;111.53;54.03;;;;;;;;;;5088635;28;20025;-65
2021/12/05 16:30:57;;;;;;;151.50;89.60;;;;;;;;;;5090656;28;20023;-66
2021/12/05 16:33:23;;;;;;;71.78;38.05;;;;;;;;;;5092421;28;20031;-67
2021/12/05 16:35:51;;;;;;;44.63;15.60;;;;;;;;;;5090996;28;20122;-64
2021/12/05 16:38:26;;;;;;;40.08;19.30;;;;;;;;;;5088617;28;20028;-64
2021/12/05 16:40:54;;;;;;;85.28;35.30;;;;;;;;;;5090066;28;20108;-65
2021/12/05 16:43:20;;;;;;;20.67;8.27;;;;;;;;;;5090402;28;20027;-64
2021/12/05 16:45:47;;;;;;;82.82;41.20;;;;;;;;;;5092122;28;20046;-66
2021/12/05 16:48:16;;;;;;;46.60;19.48;;;;;;;;;;5094659;28;20115;-64
2021/12/05 16:50:43;;;;;;;17.10;8.18;;;;;;;;;;5087578;28;20031;-65
2021/12/05 16:53:11;;;;;;;15.25;3.10;;;;;;;;;;5087907;28;20024;-65
2021/12/05 16:55:41;;;;;;;10.77;2.95;;;;;;;;;;5081416;28;20031;-65
2021/12/05 16:58:16;;;;;;;7.20;2.90;;;;;;;;;;5089217;28;20437;-65
2021/12/05 17:00:48;;;;;;;10.07;2.58;;;;;;;;;;5093094;28;20399;-66
2021/12/05 17:03:19;;;;;;;8.00;1.98;;;;;;;;;;5091410;28;20016;-65
2021/12/05 17:05:48;;;;;;;6.82;2.25;;;;;;;;;;5087569;28;20024;-64
2021/12/05 17:08:16;;;;;;;8.10;2.05;;;;;;;;;;5092026;28;20019;-65
2021/12/05 17:10:45;;;;;;;8.93;2.10;;;;;;;;;;5078923;28;20029;-64
2021/12/05 17:13:14;;;;;;;4.78;2.13;;;;;;;;;;5089662;28;20047;-65
2021/12/05 17:16:00;;;;;;;9.43;2.03;;;;;;;;;;5096015;28;20035;-64
2021/12/05 17:18:31;;;;;;;13.70;4.93;;;;;;;;;;5083878;28;20034;-64
2021/12/05 17:21:06;;;;;;;12.93;6.03;;;;;;;;;;5081640;28;20097;-64
2021/12/05 17:23:39;;;;;;;17.88;7.10;;;;;;;;;;5083192;28;20028;-65
2021/12/05 17:26:12;;;;;;;14.18;6.72;;;;;;;;;;5087868;28;20577;-64
2021/12/05 17:28:50;;;;;;;29.58;10.93;;;;;;;;;;5083417;28;20122;-64
2021/12/05 17:31:32;;;;;;;56.40;20.80;;;;;;;;;;5083945;28;20075;-64
2021/12/05 17:34:01;;;;;;;37.92;10.82;;;;;;;;;;5084698;28;20076;-60
2021/12/05 17:36:33;;;;;;;31.70;10.77;;;;;;;;;;5086576;28;20051;-59
2021/12/05 17:39:11;;;;;;;28.98;10.23;;;;;;;;;;5079745;28;20027;-60
2021/12/05 17:41:57;;;;;;;31.90;12.50;;;;;;;;;;5083804;28;20027;-59
2021/12/05 17:44:24;;;;;;;35.97;12.63;;;;;;;;;;5089244;27;20031;-60
2021/12/05 17:46:52;;;;;;;20.98;8.25;;;;;;;;;;5088532;28;20521;-60
2021/12/05 17:49:19;;;;;;;12.73;4.18;;;;;;;;;;5102027;27;20131;-61
2021/12/05 17:51:46;;;;;;;10.93;4.32;;;;;;;;;;5088871;28;20035;-61
2021/12/05 17:54:14;;;;;;;8.13;3.00;;;;;;;;;;5087006;28;20020;-59
2021/12/05 17:56:44;;;;;;;14.40;3.25;;;;;;;;;;5077687;28;20395;-60
2021/12/05 17:59:29;;;;;;;9.00;3.03;;;;;;;;;;5082943;28;20024;-60
2021/12/05 18:04:42;;;;;;;8.32;3.17;;;;;;;;;;5082247;28;20114;-59
2021/12/05 18:07:09;;;;;;;7.35;2.97;;;;;;;;;;5083936;28;20035;-62
2021/12/05 18:09:35;;;;;;;8.88;2.70;;;;;;;;;;5087548;28;20040;-59
2021/12/05 18:12:02;;;;;;;7.63;2.80;;;;;;;;;;5081806;28;20033;-62
2021/12/05 18:14:28;;;;;;;7.35;2.67;;;;;;;;;;5083807;28;20035;-59
2021/12/05 18:16:55;;;;;;;12.93;5.78;;;;;;;;;;5086409;28;20024;-59
2021/12/05 18:19:21;;;;;;;9.35;3.08;;;;;;;;;;5078464;28;20052;-59
2021/12/05 18:21:49;;;;;;;8.27;2.88;;;;;;;;;;5084652;28;20027;-58
2021/12/05 18:24:16;;;;;;;7.38;3.08;;;;;;;;;;5087202;28;20020;-59
2021/12/05 18:26:42;;;;;;;8.65;3.65;;;;;;;;;;5084475;28;20025;-59
2021/12/05 18:29:10;;;;;;;5.57;2.95;;;;;;;;;;5080126;28;20087;-59
2021/12/05 18:31:37;;;;;;;7.68;2.83;;;;;;;;;;5075287;28;20040;-59
2021/12/05 18:34:05;;;;;;;11.88;3.13;;;;;;;;;;5084213;28;20056;-59
2021/12/05 18:36:32;;;;;;;9.18;2.38;;;;;;;;;;5088196;28;20020;-61
2021/12/05 18:38:59;;;;;;;7.70;3.05;;;;;;;;;;5082963;28;20024;-60
2021/12/05 18:41:27;;;;;;;16.25;5.32;;;;;;;;;;5092583;28;20024;-60
2021/12/05 18:43:53;;;;;;;53.53;20.80;;;;;;;;;;5095231;28;20062;-60
2021/12/05 18:46:19;;;;;;;80.38;33.97;;;;;;;;;;5091752;28;20028;-60
2021/12/05 18:48:46;;;;;;;180.40;92.13;;;;;;;;;;5085604;28;20039;-61
2021/12/05 18:51:14;;;;;;;80.22;38.45;;;;;;;;;;5078633;28;20103;-61
2021/12/05 18:53:41;;;;;;;53.33;24.67;;;;;;;;;;5078751;28;20028;-60
2021/12/05 18:56:08;;;;;;;67.70;37.05;;;;;;;;;;5086371;28;20034;-60
2021/12/05 18:58:38;;;;;;;25.38;12.75;;;;;;;;;;5096841;28;20024;-63
2021/12/05 19:06:43;;;;;;;8.43;3.55;;;;;;;;;;5100375;28;20047;-65
2021/12/05 19:11:48;;;;;;;8.68;3.00;;;;;;;;;;5082890;28;20028;-63
2021/12/05 19:14:25;;;;;;;9.30;2.67;;;;;;;;;;5080849;28;20485;-64
2021/12/05 19:16:53;;;;;;;11.35;2.70;;;;;;;;;;5081984;28;20417;-64
2021/12/05 19:19:20;;;;;;;6.88;2.28;;;;;;;;;;5091802;28;20505;-70
2021/12/05 19:21:47;;;;;;;6.75;2.92;;;;;;;;;;5097003;28;20027;-69
2021/12/05 19:24:14;;;;;;;7.43;2.55;;;;;;;;;;5092845;28;20020;-67
2021/12/05 19:26:40;;;;;;;7.53;2.50;;;;;;;;;;5098811;28;20467;-67
2021/12/05 19:29:06;;;;;;;6.22;2.13;;;;;;;;;;5086524;28;20503;-67
2021/12/05 19:31:32;;;;;;;6.68;2.42;;;;;;;;;;5087757;28;20019;-67
2021/12/05 19:33:59;;;;;;;10.63;3.30;;;;;;;;;;5069985;28;20161;-67
2021/12/05 19:36:28;;;;;;;8.77;2.83;;;;;;;;;;5093915;28;20024;-72
2021/12/05 19:38:55;;;;;;;14.40;6.47;;;;;;;;;;5091362;28;20510;-69
2021/12/05 19:41:22;;;;;;;27.05;13.82;;;;;;;;;;5095149;28;20036;-68
2021/12/05 19:43:48;;;;;;;39.88;22.92;;;;;;;;;;5086710;28;20078;-66
2021/12/05 19:46:16;;;;;;;33.50;18.40;;;;;;;;;;5091478;28;20052;-67
2021/12/05 19:48:43;;;;;;;36.47;19.17;;;;;;;;;;5084212;28;20115;-67
2021/12/05 19:51:11;;;;;;;15.77;6.70;;;;;;;;;;5092103;28;20111;-67
2021/12/05 19:53:38;;;;;;;12.32;5.18;;;;;;;;;;5094959;28;20471;-66
2021/12/05 19:56:06;;;;;;;12.75;4.05;;;;;;;;;;5098638;28;20032;-67
2021/12/05 19:58:32;;;;;;;14.45;6.78;;;;;;;;;;5086607;28;20119;-67
2021/12/05 20:00:58;;;;;;;11.85;4.38;;;;;;;;;;5068715;28;20444;-64
2021/12/05 20:03:24;;;;;;;10.02;3.40;;;;;;;;;;5091682;28;20027;-63
2021/12/05 20:05:50;;;;;;;11.50;4.03;;;;;;;;;;5095461;28;20020;-63
2021/12/05 20:08:17;;;;;;;13.23;3.72;;;;;;;;;;5098111;28;20513;-64
2021/12/05 20:10:44;;;;;;;12.65;3.00;;;;;;;;;;5092996;28;20036;-63
2021/12/05 20:13:12;;;;;;;10.15;3.22;;;;;;;;;;5094579;28;20027;-63
2021/12/05 20:15:39;;;;;;;15.07;3.03;;;;;;;;;;5093391;28;20402;-64
2021/12/05 20:18:08;;;;;;;10.82;3.25;;;;;;;;;;5089146;28;20555;-64
2021/12/05 20:20:34;;;;;;;12.48;4.05;;;;;;;;;;5096968;28;20048;-64
2021/12/05 20:23:00;;;;;;;12.73;3.60;;;;;;;;;;5100334;28;20020;-64
2021/12/05 20:25:28;;;;;;;13.30;3.67;;;;;;;;;;5084436;28;20040;-63
2021/12/05 20:27:57;;;;;;;8.63;3.28;;;;;;;;;;5093356;28;20410;-64
2021/12/05 20:30:25;;;;;;;14.20;2.90;;;;;;;;;;5097073;28;20123;-64
2021/12/05 20:32:52;;;;;;;9.98;2.63;;;;;;;;;;5092382;28;20021;-63
2021/12/05 20:35:20;;;;;;;10.35;2.63;;;;;;;;;;5089236;28;20032;-64
2021/12/05 20:37:49;;;;;;;12.25;4.13;;;;;;;;;;5084599;28;20170;-63
2021/12/05 20:40:16;;;;;;;11.20;3.58;;;;;;;;;;5084595;28;20039;-62
2021/12/05 20:42:43;;;;;;;9.23;3.03;;;;;;;;;;5084801;28;20617;-62
2021/12/05 20:45:10;;;;;;;14.85;3.20;;;;;;;;;;5091046;28;20116;-61
2021/12/05 20:47:36;;;;;;;8.95;2.55;;;;;;;;;;5093636;28;20065;-62
2021/12/05 20:50:05;;;;;;;10.85;2.92;;;;;;;;;;5096136;28;20048;-63
2021/12/05 20:52:32;;;;;;;16.13;3.05;;;;;;;;;;5077954;28;20142;-63
2021/12/05 20:54:58;;;;;;;17.27;3.85;;;;;;;;;;5087878;28;20546;-63
2021/12/05 20:57:25;;;;;;;11.55;2.97;;;;;;;;;;5089072;28;20020;-63
2021/12/05 20:59:51;;;;;;;9.07;2.85;;;;;;;;;;5081030;28;20051;-62
2021/12/05 21:02:17;;;;;;;13.68;2.72;;;;;;;;;;5086030;28;20023;-64
2021/12/05 21:04:44;;;;;;;13.20;3.35;;;;;;;;;;5082407;28;20036;-64
2021/12/05 21:07:14;;;;;;;12.32;3.20;;;;;;;;;;5087590;28;20027;-63
2021/12/05 21:09:40;;;;;;;8.93;2.00;;;;;;;;;;5083789;28;20043;-63
2021/12/05 21:12:10;;;;;;;14.50;3.03;;;;;;;;;;5082394;28;20119;-63
2021/12/05 21:14:36;;;;;;;13.98;2.75;;;;;;;;;;5077416;28;20123;-63
2021/12/05 21:17:02;;;;;;;9.93;2.60;;;;;;;;;;5071981;28;20024;-63
2021/12/05 21:19:29;;;;;;;14.05;2.85;;;;;;;;;;5077182;28;20097;-64
2021/12/05 21:21:57;;;;;;;8.75;2.60;;;;;;;;;;5080748;28;20084;-63
2021/12/05 21:24:23;;;;;;;16.48;3.55;;;;;;;;;;5081245;28;20129;-64
2021/12/05 21:26:49;;;;;;;15.52;2.67;;;;;;;;;;5079762;28;20024;-64
2021/12/05 21:29:18;;;;;;;14.85;3.35;;;;;;;;;;5080947;28;20042;-63
2021/12/05 21:31:45;;;;;;;16.38;3.28;;;;;;;;;;5091484;28;20039;-63
2021/12/05 21:34:11;;;;;;;9.95;2.95;;;;;;;;;;5095956;28;20027;-63
2021/12/05 21:36:38;;;;;;;8.15;2.50;;;;;;;;;;5096868;28;20028;-64
2021/12/05 21:39:05;;;;;;;13.18;3.15;;;;;;;;;;5083518;28;20024;-63
2021/12/05 21:41:31;;;;;;;11.07;2.95;;;;;;;;;;5082779;28;20035;-64
2021/12/05 21:43:57;;;;;;;7.95;2.25;;;;;;;;;;5082167;28;20024;-64
2021/12/05 21:46:25;;;;;;;17.70;2.92;;;;;;;;;;5082343;28;20111;-64
2021/12/05 21:48:51;;;;;;;8.10;2.40;;;;;;;;;;5082933;28;20047;-62
2021/12/05 21:51:18;;;;;;;16.17;3.08;;;;;;;;;;5080434;28;20024;-63
2021/12/05 21:53:46;;;;;;;17.70;3.28;;;;;;;;;;5081763;28;20132;-63
2021/12/05 21:56:13;;;;;;;15.18;2.85;;;;;;;;;;5084400;28;20028;-63
2021/12/05 21:58:40;;;;;;;10.38;2.63;;;;;;;;;;5080405;28;20024;-63
2021/12/05 22:01:06;;;;;;;13.35;3.05;;;;;;;;;;5082517;28;20035;-62
2021/12/05 22:03:34;;;;;;;11.23;3.15;;;;;;;;;;5081092;28;20179;-62
2021/12/05 22:06:00;;;;;;;15.15;3.38;;;;;;;;;;5082432;28;20036;-62
2021/12/05 22:08:27;;;;;;;15.90;2.97;;;;;;;;;;5080619;28;20028;-62
2021/12/05 22:10:54;;;;;;;11.57;3.75;;;;;;;;;;5079974;28;20032;-62
2021/12/05 22:13:22;;;;;;;16.50;3.65;;;;;;;;;;5082154;28;20040;-62
2021/12/05 22:15:48;;;;;;;12.77;3.30;;;;;;;;;;5082786;28;20081;-63
2021/12/05 22:18:14;;;;;;;13.85;5.55;;;;;;;;;;5081334;28;20090;-63
2021/12/05 22:20:46;;;;;;;17.38;6.32;;;;;;;;;;5079894;28;20036;-63
2021/12/05 22:23:13;;;;;;;22.40;6.22;;;;;;;;;;5082304;28;20098;-63
2021/12/05 22:25:40;;;;;;;46.15;15.27;;;;;;;;;;5083737;28;20021;-63
2021/12/05 22:28:08;;;;;;;19.60;5.43;;;;;;;;;;5089114;28;20036;-63
2021/12/05 22:30:35;;;;;;;24.52;8.80;;;;;;;;;;5072812;28;20065;-63
2021/12/05 22:33:02;;;;;;;24.27;7.10;;;;;;;;;;5097643;28;20632;-62
2021/12/05 22:35:28;;;;;;;66.88;18.15;;;;;;;;;;5097783;28;20031;-62
2021/12/05 22:37:54;;;;;;;45.00;15.18;;;;;;;;;;5093125;28;20074;-63
2021/12/05 22:40:22;;;;;;;103.68;44.55;;;;;;;;;;5085118;28;20029;-63
2021/12/05 22:42:49;;;;;;;53.25;20.73;;;;;;;;;;5093007;28;20028;-63
2021/12/05 22:45:15;;;;;;;80.10;35.40;;;;;;;;;;5094710;28;20034;-63
2021/12/05 22:47:42;;;;;;;59.95;26.45;;;;;;;;;;5093674;28;20028;-62
2021/12/05 22:50:09;;;;;;;37.63;14.35;;;;;;;;;;5093367;28;20040;-62
2021/12/05 22:52:36;;;;;;;30.75;11.95;;;;;;;;;;5098482;28;20035;-62
2021/12/05 22:55:03;;;;;;;37.30;15.02;;;;;;;;;;5095781;28;20028;-62
2021/12/05 22:57:30;;;;;;;25.95;9.48;;;;;;;;;;5104243;28;20020;-62
2021/12/05 22:59:56;;;;;;;21.35;7.35;;;;;;;;;;5097275;28;20383;-62
2021/12/05 23:02:22;;;;;;;23.95;7.03;;;;;;;;;;5096770;28;20020;-63
2021/12/05 23:04:49;;;;;;;21.17;8.65;;;;;;;;;;5095472;28;20407;-63
2021/12/05 23:07:15;;;;;;;17.35;5.10;;;;;;;;;;5096423;28;20033;-63
2021/12/05 23:09:42;;;;;;;16.60;4.57;;;;;;;;;;5096564;28;20054;-63
2021/12/05 23:12:09;;;;;;;13.70;3.55;;;;;;;;;;5092161;28;20024;-63
2021/12/05 23:14:35;;;;;;;13.00;3.17;;;;;;;;;;5099925;28;20019;-63
2021/12/05 23:17:02;;;;;;;14.98;2.90;;;;;;;;;;5091400;28;20478;-62
2021/12/05 23:19:28;;;;;;;17.10;2.78;;;;;;;;;;5100186;28;20418;-62
